Participated 2 times
Between 2024 and 2025
Laurenz Rex, Germany
Tour de France 2026 starts from Barcelona, Spain in

Stats and Facts from
Tour de France.

2026   2025   2024   2023  2022  2021  2020  2019   2018  2017   2016   2015  2014  2013   2012   2011  2010   2009   2008   2007   2006   2005   2004   2003   2002   2001   2000   1999   1998   1997  1996   1995   1994   1993   1992  1991   1990   1989   1988   1987   1986   1985   1984   1983  1982  1981   1980   1979  1978  1977   1976  1975  1974  1973   1972   1971   1970  1969   1968   1967   1966   1965  1964  1963   1962   1961   1960   1959   1958   1957  1956   1955   1954   1953   1952  1951  1950  1949   1948  1947  1939   1938   1937   1936   1935   1934   1933  1932   1931   1930  1929   1928   1927   1926  1925  1924  1923   1922   1921   1920   1919  1914   1913   1912   1911   1910  1909   1908   1907   1906  1905  1904   1903 

Tourstats
Sitemap

After stage 21 - 2025:
 16451 starters.
  5464 different riders.
  689 teams.
  2398 stages.
  470 restdays.
  466506.50 km.
  5925 abandoned riders.

Click map for 2012 route.
Facts from Tour de France 2012
  |   Stages.  |   Stage winners.  |   Days in jerseys.  |   Teams.  |   All riders.  |   All riders by age.  |   All riders from.  |  

  |   Rookies.  |   Withdrawls.  |   Average speed.  |   GC.  |   Polka  |   Green  |   White  |   Summits. (In tour)  |   Miscellaneous.  |  

Stage 16 on July 18th. 2012
Pick a stage:  Pro  1  2  3  4  5  6  7  8  9  10  11  12  13  14  15  16  17  18  19  20  

After stage 16:    Bradley Wiggins    Thomas  Voeckler    Peter Sagan    Tejay Van Garderen  
  PauBagnères-de-Luchon | Dist: 197.00km. | Winner: Thomas  Voeckler

Podium
HC  Col de l'Aubisque Thomas  Voecklerafter53.50 km.

HC  Col du Tourmalet Thomas  Voecklerafter120.50 km.

1  Col d'Aspin Thomas  Voecklerafter150.50 km.

1  Col de Peyresourde Thomas  Voecklerafter181.50 km.


Average speed for all riders in stage:  33,119 km./hr.

1
 Thomas  Voeckler  Europcar05h 35' 02"=35,280  km/h

2
 Chris Anker Sørensen  Saxo Bank-Tinkoff Bank05h 36' 42"+  00:01:40 =35,105  km/h

3
 Gorka Izagirre  Euskaltel-Euskadi05h 38' 24"+  00:03:22 =34,929  km/h

4  Alexandre Vinokourov  Astana Pro Team05h 38' 24"+  00:03:22 =34,929  km/h

5  Brice Feillu  Saur-Sojasun05h 39' 00"+  00:03:58 =34,867  km/h

6  Jens Voigt  Radioshack–Nissan05h 39' 20"+  00:04:18 =34,833  km/h

7  Dan Martin  Garmin-Sharp-Barracuda05h 41' 10"+  00:06:08 =34,646  km/h

8  Simone Stortoni  Lampre-ISD05h 41' 10"+  00:06:08 =34,646  km/h

9  Giampaolo Caruso  Katusha05h 41' 10"+  00:06:08 =34,646  km/h

10  Laurens Ten Dam  Rabobank05h 41' 13"+  00:06:11 =34,641  km/h

11  Vincenzo Nibali  Liquigas-Cannondale05h 42' 11"+  00:07:09 =34,543  km/h

12  Bradley Wiggins  Sky Procycling05h 42' 11"+  00:07:09 =34,543  km/h

13  Chris Froome  Sky Procycling05h 42' 11"+  00:07:09 =34,543  km/h

14  Nicolas Roche  AG2R La Mondiale05h 43' 09"+  00:08:07 =34,446  km/h

15  Tejay Van Garderen  BMC05h 43' 09"+  00:08:07 =34,446  km/h

16  Jurgen Van Den Broeck  Lotto-Belisol05h 43' 09"+  00:08:07 =34,446  km/h

17  Haimar  Zubeldía  Radioshack–Nissan05h 43' 09"+  00:08:07 =34,446  km/h

18  Alejandro Valverde  Movistar05h 43' 09"+  00:08:07 =34,446  km/h

19  Juan José Cobo  Movistar05h 43' 09"+  00:08:07 =34,446  km/h

20  Christopher Horner  Radioshack–Nissan05h 43' 09"+  00:08:07 =34,446  km/h

21  Janez Brajkovič  Astana Pro Team05h 43' 50"+  00:08:48 =34,377  km/h

22  Pierre Rolland  Europcar05h 43' 50"+  00:08:48 =34,377  km/h

23  Thibaut Pinot  FDJ – Big Mat05h 45' 03"+  00:10:01 =34,256  km/h

24  Egoi Martínez  Euskaltel-Euskadi05h 45' 48"+  00:10:46 =34,182  km/h

25  Jelle Vanendert  Lotto-Belisol05h 45' 48"+  00:10:46 =34,182  km/h

26  Christophe Kern  Europcar05h 45' 48"+  00:10:46 =34,182  km/h

27  Maxime Monfort  Radioshack–Nissan05h 45' 56"+  00:10:54 =34,168  km/h

28  Denis Menchov  Katusha05h 45' 56"+  00:10:54 =34,168  km/h

29  Eduard Vorganov  Katusha05h 45' 56"+  00:10:54 =34,168  km/h

30  Rui Costa  Movistar05h 45' 56"+  00:10:54 =34,168  km/h

31  Richie Porte  Sky Procycling05h 45' 56"+  00:10:54 =34,168  km/h

32  Marco Marzano  Lampre-ISD05h 45' 56"+  00:10:54 =34,168  km/h

33  Andréas  Klöden  Radioshack–Nissan05h 45' 56"+  00:10:54 =34,168  km/h

34  Levi Leipheimer  Omega Pharma – Quick Step05h 45' 56"+  00:10:54 =34,168  km/h

35  Cadel Evans  BMC05h 46' 58"+  00:11:56 =34,067  km/h

36  George Hincapie  BMC05h 46' 58"+  00:11:56 =34,067  km/h

37  Andriy Grivko  Astana Pro Team05h 46' 58"+  00:11:56 =34,067  km/h

38  Amaël Moinard  BMC05h 46' 58"+  00:11:56 =34,067  km/h

39  Andrey Kashechkin  Astana Pro Team05h 46' 58"+  00:11:56 =34,067  km/h

40  Johnny Hoogerland  Vacansoleil-DCM05h 46' 58"+  00:11:56 =34,067  km/h

41  Rafael Valls Ferri  Vacansoleil-DCM05h 46' 58"+  00:11:56 =34,067  km/h

42  Steven Kruijswijk  Rabobank05h 46' 58"+  00:11:56 =34,067  km/h

43  Pablo Urtasun  Euskaltel-Euskadi05h 46' 58"+  00:11:56 =34,067  km/h

44  Ivan Basso  Liquigas-Cannondale05h 49' 09"+  00:14:07 =33,854  km/h

45  Fredrik Kessiakoff  Astana Pro Team05h 49' 19"+  00:14:17 =33,837  km/h

46  Sandy Casar  FDJ – Big Mat05h 50' 19"+  00:15:17 =33,741  km/h

47  Vladimir Karpets  Movistar05h 50' 19"+  00:15:17 =33,741  km/h

48  Dominik Nerz  Liquigas-Cannondale05h 50' 19"+  00:15:17 =33,741  km/h

49  Jorge Azanza  Euskaltel-Euskadi05h 50' 19"+  00:15:17 =33,741  km/h

50  Fabrice Jeandesboz  Saur-Sojasun05h 50' 56"+  00:15:54 =33,682  km/h

51  Jérôme Coppel  Saur-Sojasun05h 50' 56"+  00:15:54 =33,682  km/h

52  Matthieu Sprick  Argos–Shimano05h 50' 56"+  00:15:54 =33,682  km/h

53  Marcus Burghardt  BMC05h 51' 40"+  00:16:38 =33,611  km/h

54  Sérgio Paulinho  Saxo Bank-Tinkoff Bank05h 53' 03"+  00:18:01 =33,480  km/h

55  Rein Taaramäe  Cofidis Le Credit En Ligne05h 53' 03"+  00:18:01 =33,480  km/h

56  Stephen Cummings  BMC05h 55' 27"+  00:20:25 =33,254  km/h

57  Michael Rogers  Sky Procycling05h 55' 27"+  00:20:25 =33,254  km/h

58  Dries Devenyns  Omega Pharma – Quick Step05h 55' 27"+  00:20:25 =33,254  km/h

59  Rubén Plaza  Movistar05h 56' 19"+  00:21:17 =33,173  km/h

60  Vasil Kiryienka  Movistar05h 56' 19"+  00:21:17 =33,173  km/h

61  Davide Malacarne  Europcar05h 56' 33"+  00:21:31 =33,151  km/h

62  Cédric Pineau  FDJ – Big Mat05h 57' 16"+  00:22:14 =33,085  km/h

63  Jean-Marc Marino  Saur-Sojasun05h 57' 17"+  00:22:15 =33,083  km/h

64  Michael Mørkøv  Saxo Bank-Tinkoff Bank05h 57' 17"+  00:22:15 =33,083  km/h

65  Stuart O'Grady  Orica-GreenEDGE05h 57' 17"+  00:22:15 =33,083  km/h

66  Christian Vandevelde  Garmin-Sharp-Barracuda05h 57' 17"+  00:22:15 =33,083  km/h

67  Adam Hansen  Lotto-Belisol05h 57' 17"+  00:22:15 =33,083  km/h

68  Peter Velits  Omega Pharma – Quick Step05h 57' 17"+  00:22:15 =33,083  km/h

69  Kevin De Weert  Omega Pharma – Quick Step05h 57' 17"+  00:22:15 =33,083  km/h

70  Michael Schär  BMC05h 57' 17"+  00:22:15 =33,083  km/h

71  Guillaume Levarlet  Saur-Sojasun05h 57' 17"+  00:22:15 =33,083  km/h

72  Pierrick  Fédrigo  FDJ – Big Mat05h 57' 17"+  00:22:15 =33,083  km/h

73  Peter Sagan  Liquigas-Cannondale05h 57' 17"+  00:22:15 =33,083  km/h

74  Yukiya  Arashiro  Europcar05h 57' 17"+  00:22:15 =33,083  km/h

75  Christian Knees  Sky Procycling05h 57' 17"+  00:22:15 =33,083  km/h

76  Yury  Trofimov  Katusha05h 57' 17"+  00:22:15 =33,083  km/h

77  Yann Huguet  Argos–Shimano05h 57' 17"+  00:22:15 =33,083  km/h

78  Maxime Bouet  AG2R La Mondiale05h 59' 59"+  00:24:57 =32,835  km/h

79  Danilo Hondo  Lampre-ISD06h 01' 22"+  00:26:20 =32,709  km/h

80  Daniel Oss  Liquigas-Cannondale06h 02' 35"+  00:27:33 =32,599  km/h

81  Koen De Kort  Argos–Shimano06h 02' 35"+  00:27:33 =32,599  km/h

82  Francis De Greef  Lotto-Belisol06h 02' 35"+  00:27:33 =32,599  km/h

83  Matthew Goss  Orica-GreenEDGE06h 02' 35"+  00:27:33 =32,599  km/h

84  Yaroslav Popovych  Radioshack–Nissan06h 02' 35"+  00:27:33 =32,599  km/h

85  Simon Gerrans  Orica-GreenEDGE06h 02' 35"+  00:27:33 =32,599  km/h

86  Romain Zingle  Cofidis Le Credit En Ligne06h 02' 35"+  00:27:33 =32,599  km/h

87  Philippe Gilbert  BMC06h 02' 35"+  00:27:33 =32,599  km/h

88  Alessandro Vanotti  Liquigas-Cannondale06h 02' 35"+  00:27:33 =32,599  km/h

89  Anthony Roux  FDJ – Big Mat06h 02' 35"+  00:27:33 =32,599  km/h

90  Federico Canuti  Liquigas-Cannondale06h 02' 35"+  00:27:33 =32,599  km/h

91  Dimitiri Fofonov  Astana Pro Team06h 02' 35"+  00:27:33 =32,599  km/h

92  Jean-Christophe Peraud  AG2R La Mondiale06h 02' 35"+  00:27:33 =32,599  km/h

93  Jérémy Roy  FDJ – Big Mat06h 02' 35"+  00:27:33 =32,599  km/h

94  Ruben Perez  Euskaltel-Euskadi06h 02' 35"+  00:27:33 =32,599  km/h

95  Samuel Dumoulin  Cofidis Le Credit En Ligne06h 02' 35"+  00:27:33 =32,599  km/h

96  Sébastien Minard  AG2R La Mondiale06h 02' 35"+  00:27:33 =32,599  km/h

97  Nick Nuyens  Saxo Bank-Tinkoff Bank06h 02' 35"+  00:27:33 =32,599  km/h

98  Nicki Sørensen  Saxo Bank-Tinkoff Bank06h 02' 35"+  00:27:33 =32,599  km/h

99  Jérôme Pineau  Omega Pharma – Quick Step06h 02' 35"+  00:27:33 =32,599  km/h

100  Michael Albasini  Orica-GreenEDGE06h 02' 35"+  00:27:33 =32,599  km/h

101  Edvald Boasson Hagen  Sky Procycling06h 02' 35"+  00:27:33 =32,599  km/h

102  Matthieu Ladagnous  FDJ – Big Mat06h 02' 35"+  00:27:33 =32,599  km/h

103  Johan Vansummeren  Garmin-Sharp-Barracuda06h 02' 35"+  00:27:33 =32,599  km/h

104  Roy Curvers  Argos–Shimano06h 02' 35"+  00:27:33 =32,599  km/h

105  Albert Timmer  Argos–Shimano06h 02' 35"+  00:27:33 =32,599  km/h

106  Sylwester Szmyd  Liquigas-Cannondale06h 02' 35"+  00:27:33 =32,599  km/h

107  Marco Marcato  Vacansoleil-DCM06h 02' 35"+  00:27:33 =32,599  km/h

108  Luis León Sánchez  Rabobank06h 02' 35"+  00:27:33 =32,599  km/h

109  Joan Horrach  Katusha06h 02' 35"+  00:27:33 =32,599  km/h

110  Borut Božič  Astana Pro Team06h 02' 35"+  00:27:33 =32,599  km/h

111  Kris Boeckmans  Vacansoleil-DCM06h 02' 35"+  00:27:33 =32,599  km/h

112  Luca Paolini  Katusha06h 02' 56"+  00:27:54 =32,568  km/h

113  Manuel Quinziato  BMC06h 02' 56"+  00:27:54 =32,568  km/h

114  Sebastian Langeveld  Orica-GreenEDGE06h 05' 13"+  00:30:11 =32,364  km/h

115  Bram Tankink  Rabobank06h 05' 13"+  00:30:11 =32,364  km/h

116  David Zabriskie  Garmin-Sharp-Barracuda06h 05' 13"+  00:30:11 =32,364  km/h

117  Cyril Gautier  Europcar06h 05' 40"+  00:30:38 =32,325  km/h

118  Mikaël Cherel  AG2R La Mondiale06h 05' 40"+  00:30:38 =32,325  km/h

119  Anders Lund  Saxo Bank-Tinkoff Bank06h 05' 40"+  00:30:38 =32,325  km/h

120  Christophe Riblon  AG2R La Mondiale06h 05' 40"+  00:30:38 =32,325  km/h

121  Blel Kadri  AG2R La Mondiale06h 05' 40"+  00:30:38 =32,325  km/h

122  Yohann Gène  Europcar06h 05' 40"+  00:30:38 =32,325  km/h

123  André Greipel  Lotto-Belisol06h 08' 06"+  00:33:04 =32,111  km/h

124  Kristjan Koren  Liquigas-Cannondale06h 08' 06"+  00:33:04 =32,111  km/h

125  Cyril Lemoine  Saur-Sojasun06h 08' 06"+  00:33:04 =32,111  km/h

126  Martin Velits  Omega Pharma – Quick Step06h 08' 06"+  00:33:04 =32,111  km/h

127  Marcel Sieberg  Lotto-Belisol06h 08' 06"+  00:33:04 =32,111  km/h

128  Baden Cooke  Orica-GreenEDGE06h 08' 06"+  00:33:04 =32,111  km/h

129  Julien Simon  Saur-Sojasun06h 08' 06"+  00:33:04 =32,111  km/h

130  Jonathan Cantwell  Saxo Bank-Tinkoff Bank06h 08' 06"+  00:33:04 =32,111  km/h

131  Jimmy Engoulvent  Saur-Sojasun06h 08' 06"+  00:33:04 =32,111  km/h

132  Tyler Farrar  Garmin-Sharp-Barracuda06h 08' 06"+  00:33:04 =32,111  km/h

133  David Millar  Garmin-Sharp-Barracuda06h 08' 06"+  00:33:04 =32,111  km/h

134  Mark Cavendish  Sky Procycling06h 08' 06"+  00:33:04 =32,111  km/h

135  Luis Angel Mate  Cofidis Le Credit En Ligne06h 08' 06"+  00:33:04 =32,111  km/h

136  Michele Scarponi  Lampre-ISD06h 08' 06"+  00:33:04 =32,111  km/h

137  Bert Grabsch  Omega Pharma – Quick Step06h 08' 06"+  00:33:04 =32,111  km/h

138  Patrick Gretsch  Argos–Shimano06h 08' 06"+  00:33:04 =32,111  km/h

139  Nicolas Edet  Cofidis Le Credit En Ligne06h 08' 06"+  00:33:04 =32,111  km/h

140  Arthur Vichot  FDJ – Big Mat06h 08' 06"+  00:33:04 =32,111  km/h

141  Pieter Weening  Orica-GreenEDGE06h 08' 06"+  00:33:04 =32,111  km/h

142  Gregory Henderson  Lotto-Belisol06h 08' 06"+  00:33:04 =32,111  km/h

143  Daryl Impey  Orica-GreenEDGE06h 08' 06"+  00:33:04 =32,111  km/h

144  Julien Fouchard  Cofidis Le Credit En Ligne06h 08' 06"+  00:33:04 =32,111  km/h

145  Maxim Iglinskiy  Astana Pro Team06h 08' 06"+  00:33:04 =32,111  km/h

146  Lars Bak  Lotto-Belisol06h 08' 06"+  00:33:04 =32,111  km/h

147  Aliaksandr Kuchynski  Katusha06h 08' 06"+  00:33:04 =32,111  km/h

148  Bernhard Eisel  Sky Procycling06h 08' 06"+  00:33:04 =32,111  km/h

149  Juan José Haedo  Saxo Bank-Tinkoff Bank06h 08' 06"+  00:33:04 =32,111  km/h

150  Karsten Kroon  Saxo Bank-Tinkoff Bank06h 08' 06"+  00:33:04 =32,111  km/h

151  Sébastien Hinault  AG2R La Mondiale06h 08' 54"+  00:33:52 =32,041  km/h

152  Jürgen Roelandts  Lotto-Belisol06h 08' 54"+  00:33:52 =32,041  km/h

153  Jan Ghyselinck  Cofidis Le Credit En Ligne06h 18' 46"+  00:43:44 =31,207  km/h


Withdrawls: 3
 RiderTeamReason
11   Fränk Schleck Radioshack–NissanDid not start
42   Grega Bole Lampre-ISDDid not finish
134   Vladimir Gusev KatushaDid not finish
Todays birthdays.

1884 • Vincenzo Borgarello
1889 • Emile Bonnefoi
1889 • Auguste Denizot
1890 • Maurice Petit
1904 • Pierino Ferioli
1905 • Vincent Carrara
1910 • Antoon Van Schendel
1925 • Georges Meunier
1945 • Gérard Besnard
1950 • Wim Kelleners
1960 • Ivan Ivanov
1960 • Pierre-Henri Menthéour
1962 • Giovanni Bottoia
1964 • Flavio Giupponi
1974 • Benoit Salmon
1977 • Iñigo Landaluze
1977 • Svein Tuft
1979 • Rubens Bertogliati
1985 • Matthew Busche

 

Optimized for Chrome - Edge
and Opera browsers.